createdAt,value
2019-05-25T00:01:41.629Z,8.38
2019-05-25T00:04:08.897Z,8.13
2019-05-25T00:06:36.432Z,9.33
2019-05-25T00:09:06.595Z,9.98
2019-05-25T00:11:33.718Z,9.63
2019-05-25T00:14:00.515Z,8.95
2019-05-25T00:16:27.737Z,8.65
2019-05-25T00:18:54.683Z,7.70
2019-05-25T00:21:21.468Z,10.00
2019-05-25T00:23:48.655Z,9.68
2019-05-25T00:26:17.935Z,8.38
2019-05-25T00:28:44.728Z,9.65
2019-05-25T00:31:11.489Z,9.25
2019-05-25T00:33:38.350Z,7.60
2019-05-25T00:36:05.387Z,9.85
2019-05-25T00:38:32.191Z,9.13
2019-05-25T00:40:59.798Z,8.03
2019-05-25T00:43:26.626Z,9.53
2019-05-25T00:45:53.897Z,13.58
2019-05-25T00:48:20.703Z,9.40
2019-05-25T00:50:48.108Z,8.78
2019-05-25T00:53:15.092Z,10.00
2019-05-25T00:55:42.034Z,9.00
2019-05-25T00:58:09.498Z,14.10
2019-05-25T01:00:36.850Z,8.45
2019-05-25T01:03:04.129Z,8.83
2019-05-25T01:05:31.651Z,7.47
2019-05-25T01:07:58.872Z,9.13
2019-05-25T01:10:25.714Z,10.75
2019-05-25T01:12:52.544Z,9.55
2019-05-25T01:15:21.535Z,8.70
2019-05-25T01:17:49.412Z,8.58
2019-05-25T01:20:21.294Z,10.15
2019-05-25T01:22:48.280Z,11.38
2019-05-25T01:25:17.222Z,9.70
2019-05-25T01:27:44.117Z,8.73
2019-05-25T01:30:12.424Z,9.38
2019-05-25T01:32:39.348Z,9.68
2019-05-25T01:35:07.149Z,8.63
2019-05-25T01:37:34.229Z,8.75
2019-05-25T01:40:01.351Z,8.98
2019-05-25T01:42:29.053Z,10.55
2019-05-25T01:44:55.869Z,9.30
2019-05-25T01:47:22.606Z,10.03
2019-05-25T01:49:49.512Z,9.38
2019-05-25T01:52:16.691Z,11.35
2019-05-25T01:54:58.627Z,9.10
2019-05-25T01:57:12.934Z,11.30
2019-05-25T01:59:39.713Z,8.93
2019-05-25T02:02:06.788Z,10.00
2019-05-25T02:04:33.827Z,10.93
2019-05-25T02:07:01.091Z,10.43
2019-05-25T02:09:27.965Z,10.23
2019-05-25T02:11:54.730Z,11.63
2019-05-25T02:14:21.682Z,12.73
2019-05-25T02:16:48.489Z,10.05
2019-05-25T02:19:17.161Z,11.53
2019-05-25T02:21:43.904Z,11.10
2019-05-25T02:24:10.989Z,11.25
2019-05-25T02:26:38.100Z,12.85
2019-05-25T02:29:05.238Z,10.65
2019-05-25T02:31:32.221Z,11.35
2019-05-25T02:33:59.151Z,10.75
2019-05-25T02:36:26.004Z,9.83
2019-05-25T02:38:52.983Z,12.20
2019-05-25T02:41:19.785Z,9.68
2019-05-25T02:43:46.690Z,10.05
2019-05-25T02:46:13.472Z,9.70
2019-05-25T02:48:40.235Z,9.13
2019-05-25T02:51:07.311Z,8.38
2019-05-25T02:53:34.086Z,8.75
2019-05-25T02:56:00.995Z,10.53
2019-05-25T02:58:27.988Z,9.90
2019-05-25T03:00:55.697Z,9.20
2019-05-25T03:03:22.550Z,11.12
2019-05-25T03:05:50.222Z,9.53
2019-05-25T03:08:17.497Z,15.98
2019-05-25T03:10:46.290Z,9.68
2019-05-25T03:13:14.770Z,13.25
2019-05-25T03:15:41.804Z,10.90
2019-05-25T03:18:08.577Z,9.08
2019-05-25T03:20:35.544Z,8.38
2019-05-25T03:23:02.391Z,12.03
2019-05-25T03:25:29.158Z,14.78
2019-05-25T03:27:56.048Z,12.88
2019-05-25T03:30:36.121Z,11.28
2019-05-25T03:33:03.766Z,9.93
2019-05-25T03:35:31.528Z,8.43
2019-05-25T03:37:58.341Z,11.68
2019-05-25T03:40:25.226Z,11.00
2019-05-25T03:42:52.498Z,10.75
2019-05-25T03:45:19.594Z,10.03
2019-05-25T03:47:46.970Z,9.40
2019-05-25T03:50:14.036Z,8.85
2019-05-25T03:52:40.940Z,9.25
2019-05-25T03:55:08.027Z,10.45
2019-05-25T03:57:34.939Z,10.53
2019-05-25T04:00:05.264Z,14.00
2019-05-25T04:02:32.156Z,10.72
2019-05-25T04:04:58.895Z,9.30
2019-05-25T04:07:26.103Z,9.18
2019-05-25T04:09:53.093Z,9.48
2019-05-25T04:12:19.963Z,9.00
2019-05-25T04:14:46.737Z,11.48
2019-05-25T04:17:14.103Z,9.85
2019-05-25T04:19:41.026Z,8.53
2019-05-25T04:22:07.807Z,9.10
2019-05-25T04:24:34.931Z,9.45
2019-05-25T04:27:01.719Z,9.15
2019-05-25T04:29:28.812Z,10.72
2019-05-25T04:31:55.764Z,10.28
2019-05-25T04:34:24.749Z,8.45
2019-05-25T04:36:51.576Z,10.15
2019-05-25T04:39:18.334Z,9.95
2019-05-25T04:41:45.146Z,11.78
2019-05-25T04:44:12.029Z,8.75
2019-05-25T04:46:38.866Z,12.55
2019-05-25T04:49:05.722Z,8.93
2019-05-25T04:51:32.538Z,11.80
2019-05-25T04:53:59.718Z,10.60
2019-05-25T04:56:38.763Z,9.15
2019-05-25T04:58:55.351Z,9.23
2019-05-25T05:01:22.735Z,9.58
2019-05-25T05:03:49.647Z,9.88
2019-05-25T05:06:16.611Z,9.18
2019-05-25T05:08:43.426Z,10.93
2019-05-25T05:11:10.580Z,11.78
2019-05-25T05:13:39.222Z,11.38
2019-05-25T05:16:06.482Z,9.25
2019-05-25T05:18:33.284Z,8.73
2019-05-25T05:21:01.473Z,10.75
2019-05-25T05:23:28.330Z,8.95
2019-05-25T05:25:55.119Z,9.53
2019-05-25T05:28:21.920Z,11.60
2019-05-25T05:30:49.168Z,9.43
2019-05-25T05:33:16.175Z,9.88
2019-05-25T05:35:44.901Z,15.68
2019-05-25T05:38:12.962Z,9.18
2019-05-25T05:40:40.992Z,11.75
2019-05-25T05:43:09.892Z,10.55
2019-05-25T05:45:39.506Z,9.03
2019-05-25T05:48:09.776Z,10.30
2019-05-25T05:50:38.110Z,9.33
2019-05-25T05:53:05.292Z,13.08
2019-05-25T05:55:32.838Z,9.88
2019-05-25T05:58:01.033Z,12.58
2019-05-25T06:00:29.792Z,10.53
2019-05-25T06:02:57.573Z,10.32
2019-05-25T06:05:24.954Z,12.98
2019-05-25T06:07:51.811Z,8.90
2019-05-25T06:10:20.497Z,12.05
2019-05-25T06:12:47.409Z,11.15
2019-05-25T06:15:17.870Z,10.85
2019-05-25T06:17:44.985Z,9.98
2019-05-25T06:20:12.651Z,8.58
2019-05-25T06:22:39.581Z,9.50
2019-05-25T06:25:08.319Z,11.18
2019-05-25T06:27:35.426Z,9.33
2019-05-25T06:30:05.572Z,9.40
2019-05-25T06:32:32.785Z,12.07
2019-05-25T06:34:59.651Z,8.70
2019-05-25T06:37:26.545Z,10.88
2019-05-25T06:39:53.417Z,9.50
2019-05-25T06:42:20.709Z,9.48
2019-05-25T06:44:47.583Z,13.62
2019-05-25T06:47:14.465Z,14.47
2019-05-25T06:49:41.422Z,14.70
2019-05-25T06:52:08.414Z,13.45
2019-05-25T06:54:35.441Z,13.28
2019-05-25T06:57:02.439Z,16.37
2019-05-25T06:59:29.503Z,12.93
2019-05-25T07:01:56.619Z,13.70
2019-05-25T07:04:23.784Z,18.67
2019-05-25T07:06:50.831Z,17.32
2019-05-25T07:09:19.257Z,17.05
2019-05-25T07:11:46.174Z,14.70
2019-05-25T07:14:13.090Z,14.33
2019-05-25T07:16:39.916Z,15.90
2019-05-25T07:19:06.764Z,15.55
2019-05-25T07:21:34.132Z,13.32
2019-05-25T07:24:01.747Z,15.80
2019-05-25T07:26:28.779Z,19.85
2019-05-25T07:28:56.124Z,20.75
2019-05-25T07:31:24.307Z,15.18
2019-05-25T07:33:51.656Z,12.68
2019-05-25T07:36:18.949Z,16.45
2019-05-25T07:38:46.033Z,17.67
2019-05-25T07:41:12.872Z,15.78
2019-05-25T07:43:40.273Z,16.93
2019-05-25T07:46:07.181Z,17.85
2019-05-25T07:48:34.433Z,14.58
2019-05-25T07:51:01.333Z,16.02
2019-05-25T07:53:28.254Z,15.03
2019-05-25T07:55:55.029Z,20.95
2019-05-25T07:58:22.481Z,16.77
2019-05-25T08:00:49.603Z,16.57
2019-05-25T08:03:16.454Z,15.98
2019-05-25T08:05:43.804Z,18.10
2019-05-25T08:08:10.657Z,14.55
2019-05-25T08:10:37.904Z,19.17
2019-05-25T08:13:04.967Z,17.32
2019-05-25T08:15:31.937Z,17.10
2019-05-25T08:17:59.382Z,14.47
2019-05-25T08:20:26.177Z,11.95
2019-05-25T08:22:52.934Z,15.55
2019-05-25T08:25:20.029Z,13.65
2019-05-25T08:27:46.944Z,14.53
2019-05-25T08:30:14.937Z,17.55
2019-05-25T08:32:41.874Z,14.95
2019-05-25T08:35:10.074Z,15.08
2019-05-25T08:37:36.939Z,14.80
2019-05-25T08:40:08.620Z,11.88
2019-05-25T08:42:35.607Z,12.50
2019-05-25T08:45:06.101Z,12.95
2019-05-25T08:47:32.923Z,14.10
2019-05-25T08:49:59.859Z,14.75
2019-05-25T08:52:27.128Z,11.43
2019-05-25T08:54:54.057Z,12.55
2019-05-25T08:57:20.976Z,14.95
2019-05-25T08:59:47.847Z,12.98
2019-05-25T09:02:15.006Z,14.73
2019-05-25T09:04:42.325Z,16.30
2019-05-25T09:07:09.491Z,12.63
2019-05-25T09:09:36.751Z,14.60
2019-05-25T09:12:04.123Z,14.70
2019-05-25T09:14:31.245Z,12.70
2019-05-25T09:16:58.197Z,11.08
2019-05-25T09:19:25.077Z,12.23
2019-05-25T09:22:02.187Z,13.90
2019-05-25T09:24:20.551Z,13.53
2019-05-25T09:26:47.491Z,13.50
2019-05-25T09:29:14.300Z,13.80
2019-05-25T09:31:42.167Z,13.20
2019-05-25T09:34:08.996Z,9.53
2019-05-25T09:36:35.946Z,13.83
2019-05-25T09:39:06.064Z,12.58
2019-05-25T09:41:32.924Z,13.65
2019-05-25T09:43:59.895Z,11.68
2019-05-25T09:46:26.703Z,11.85
2019-05-25T09:48:53.468Z,12.15
2019-05-25T09:51:20.723Z,14.73
2019-05-25T09:53:47.953Z,12.95
2019-05-25T09:56:14.850Z,12.37
2019-05-25T09:58:41.585Z,14.30
2019-05-25T10:01:09.514Z,11.45
2019-05-25T10:03:36.396Z,12.13
2019-05-25T10:06:10.886Z,12.20
2019-05-25T10:08:32.585Z,11.43
2019-05-25T10:10:59.579Z,13.22
2019-05-25T10:13:26.364Z,15.98
2019-05-25T10:15:53.398Z,12.13
2019-05-25T10:18:20.170Z,13.05
2019-05-25T10:20:46.985Z,12.50
2019-05-25T10:23:13.784Z,12.40
2019-05-25T10:25:40.582Z,11.85
2019-05-25T10:28:07.752Z,14.07
2019-05-25T10:30:35.248Z,12.68
2019-05-25T10:33:02.224Z,10.08
2019-05-25T10:35:29.323Z,11.68
2019-05-25T10:37:56.257Z,14.33
2019-05-25T10:40:23.601Z,10.10
2019-05-25T10:42:50.484Z,11.78
2019-05-25T10:45:17.544Z,13.10
2019-05-25T10:47:46.182Z,10.15
2019-05-25T10:50:13.771Z,9.20
2019-05-25T10:52:40.954Z,11.38
2019-05-25T10:55:08.642Z,12.20
2019-05-25T10:57:37.190Z,10.53
2019-05-25T11:00:07.769Z,11.40
2019-05-25T11:02:34.575Z,13.20
2019-05-25T11:05:03.211Z,12.35
2019-05-25T11:07:30.596Z,12.33
2019-05-25T11:09:57.391Z,12.05
2019-05-25T11:12:26.117Z,10.08
2019-05-25T11:14:53.252Z,9.40
2019-05-25T11:17:20.096Z,9.55
2019-05-25T11:19:47.388Z,6.08
2019-05-25T11:22:14.249Z,5.60
2019-05-25T11:24:41.074Z,7.62
2019-05-25T11:27:07.878Z,6.40
2019-05-25T11:29:35.081Z,6.00
2019-05-25T11:32:04.797Z,5.72
2019-05-25T11:34:32.928Z,7.30
2019-05-25T11:37:00.877Z,7.70
2019-05-25T11:39:28.210Z,7.72
2019-05-25T11:41:55.197Z,6.92
2019-05-25T11:44:21.970Z,9.23
2019-05-25T11:46:48.826Z,9.13
2019-05-25T11:49:22.555Z,7.55
2019-05-25T11:51:45.367Z,9.18
2019-05-25T11:54:12.478Z,6.30
2019-05-25T11:56:39.351Z,6.60
2019-05-25T11:59:06.315Z,7.37
2019-05-25T12:01:33.745Z,8.58
2019-05-25T12:04:00.507Z,9.95
2019-05-25T12:06:27.667Z,12.90
2019-05-25T12:08:54.457Z,8.20
2019-05-25T12:11:21.242Z,9.68
2019-05-25T12:13:47.997Z,12.73
2019-05-25T12:16:14.908Z,8.83
2019-05-25T12:18:42.428Z,7.12
2019-05-25T12:21:09.309Z,7.65
2019-05-25T12:23:36.158Z,8.95
2019-05-25T12:26:03.436Z,8.28
2019-05-25T12:28:30.794Z,8.70
2019-05-25T12:30:57.719Z,7.62
2019-05-25T12:33:24.690Z,7.45
2019-05-25T12:35:51.627Z,9.98
2019-05-25T12:38:18.622Z,9.20
2019-05-25T12:40:53.508Z,9.95
2019-05-25T12:43:16.334Z,11.83
2019-05-25T12:45:46.205Z,7.87
2019-05-25T12:48:12.957Z,8.85
2019-05-25T12:50:39.867Z,8.40
2019-05-25T12:53:06.668Z,7.97
2019-05-25T12:55:33.851Z,10.30
2019-05-25T12:58:03.574Z,7.35
2019-05-25T13:00:30.550Z,12.40
2019-05-25T13:02:57.386Z,8.25
2019-05-25T13:05:33.615Z,13.75
2019-05-25T13:07:53.254Z,8.30
2019-05-25T13:10:20.327Z,7.67
2019-05-25T13:12:47.081Z,7.72
2019-05-25T13:15:14.286Z,6.42
2019-05-25T13:17:42.159Z,11.57
2019-05-25T13:20:09.792Z,7.83
2019-05-25T13:22:37.157Z,10.08
2019-05-25T13:25:07.112Z,10.38
2019-05-25T13:27:34.542Z,8.98
2019-05-25T13:30:03.319Z,9.60
2019-05-25T13:32:30.161Z,5.12
2019-05-25T13:34:57.095Z,6.70
2019-05-25T13:37:23.865Z,6.75
2019-05-25T13:39:50.814Z,7.97
2019-05-25T13:42:17.753Z,6.55
2019-05-25T13:44:44.600Z,6.70
2019-05-25T13:47:11.669Z,10.00
2019-05-25T13:49:38.532Z,8.58
2019-05-25T13:52:06.236Z,9.33
2019-05-25T13:54:33.144Z,10.80
2019-05-25T13:56:59.964Z,14.93
2019-05-25T13:59:26.866Z,18.70
2019-05-25T14:01:53.864Z,17.15
2019-05-25T14:04:21.075Z,21.20
2019-05-25T14:06:47.860Z,13.65
2019-05-25T14:09:15.936Z,16.12
2019-05-25T14:11:43.239Z,11.18
2019-05-25T14:14:10.177Z,12.30
2019-05-25T14:16:37.095Z,13.40
2019-05-25T14:19:04.114Z,11.15
2019-05-25T14:21:31.184Z,13.43
2019-05-25T14:23:58.173Z,12.98
2019-05-25T14:26:25.360Z,15.03
2019-05-25T14:28:52.463Z,13.70
2019-05-25T14:31:19.236Z,10.60
2019-05-25T14:33:46.302Z,12.68
2019-05-25T14:36:13.544Z,11.18
2019-05-25T14:38:40.328Z,10.93
2019-05-25T14:41:07.089Z,10.03
2019-05-25T14:43:34.265Z,7.67
2019-05-25T14:46:01.138Z,7.92
2019-05-25T14:48:28.568Z,8.95
2019-05-25T14:50:56.102Z,10.78
2019-05-25T14:53:22.950Z,16.57
2019-05-25T14:55:49.754Z,8.03
2019-05-25T14:58:16.587Z,11.00
2019-05-25T15:00:43.546Z,8.35
2019-05-25T15:03:10.617Z,9.68
2019-05-25T15:05:38.144Z,8.68
2019-05-25T15:08:05.362Z,9.95
2019-05-25T15:10:32.320Z,9.00
2019-05-25T15:13:01.927Z,10.70
2019-05-25T15:15:29.054Z,10.48
2019-05-25T15:17:55.953Z,9.95
2019-05-25T15:20:23.026Z,8.45
2019-05-25T15:22:49.818Z,8.00
2019-05-25T15:25:19.292Z,9.78
2019-05-25T15:27:46.156Z,8.58
2019-05-25T15:30:14.296Z,7.25
2019-05-25T15:32:42.003Z,9.73
2019-05-25T15:35:09.368Z,6.87
2019-05-25T15:37:36.275Z,8.53
2019-05-25T15:40:08.807Z,9.88
2019-05-25T15:42:36.553Z,8.50
2019-05-25T15:45:05.790Z,7.67
2019-05-25T15:47:32.684Z,7.30
2019-05-25T15:49:59.791Z,8.50
2019-05-25T15:52:27.054Z,8.05
2019-05-25T15:54:54.460Z,8.83
2019-05-25T15:57:21.402Z,9.48
2019-05-25T15:59:48.328Z,9.33
2019-05-25T16:02:16.325Z,10.23
2019-05-25T16:04:43.639Z,8.80
2019-05-25T16:07:10.519Z,9.30
2019-05-25T16:09:37.534Z,9.35
2019-05-25T16:12:04.635Z,8.70
2019-05-25T16:14:31.463Z,8.45
2019-05-25T16:16:58.863Z,10.15
2019-05-25T16:19:25.935Z,9.50
2019-05-25T16:21:53.382Z,12.15
2019-05-25T16:24:20.510Z,8.73
2019-05-25T16:26:47.408Z,9.50
2019-05-25T16:29:14.589Z,8.68
2019-05-25T16:31:44.393Z,9.15
2019-05-25T16:34:11.414Z,9.05
2019-05-25T16:36:38.350Z,7.78
2019-05-25T16:39:06.657Z,9.60
2019-05-25T16:41:33.904Z,7.08
2019-05-25T16:44:00.927Z,8.10
2019-05-25T16:46:28.279Z,9.05
2019-05-25T16:48:55.147Z,9.25
2019-05-25T16:51:22.379Z,9.48
2019-05-25T16:53:49.323Z,6.90
2019-05-25T16:56:16.550Z,7.53
2019-05-25T16:58:43.328Z,8.53
2019-05-25T17:01:10.425Z,8.13
2019-05-25T17:03:37.392Z,9.38
2019-05-25T17:06:04.405Z,7.10
2019-05-25T17:08:31.169Z,7.15
2019-05-25T17:10:57.938Z,9.35
2019-05-25T17:13:25.068Z,7.33
2019-05-25T17:15:52.042Z,6.08
2019-05-25T17:18:19.053Z,7.78
2019-05-25T17:20:46.017Z,8.50
2019-05-25T17:23:12.822Z,6.37
2019-05-25T17:25:39.715Z,6.35
2019-05-25T17:28:06.581Z,6.37
2019-05-25T17:30:44.100Z,6.47
2019-05-25T17:33:11.297Z,6.62
2019-05-25T17:35:39.353Z,5.62
2019-05-25T17:38:06.525Z,4.45
2019-05-25T17:40:33.514Z,6.22
2019-05-25T17:43:00.479Z,6.58
2019-05-25T17:45:27.476Z,4.45
2019-05-25T17:47:55.257Z,4.50
2019-05-25T17:50:25.460Z,3.80
2019-05-25T17:52:52.439Z,4.60
2019-05-25T17:55:19.601Z,4.12
2019-05-25T17:57:46.549Z,3.92
2019-05-25T18:00:19.671Z,5.00
2019-05-25T18:02:46.475Z,5.85
2019-05-25T18:05:13.999Z,3.90
2019-05-25T18:07:40.823Z,4.20
2019-05-25T18:10:08.299Z,5.17
2019-05-25T18:12:35.278Z,3.67
2019-05-25T18:15:07.589Z,4.28
2019-05-25T18:17:34.858Z,4.20
2019-05-25T18:20:07.037Z,3.95
2019-05-25T18:22:34.010Z,3.90
2019-05-25T18:25:01.004Z,3.77
2019-05-25T18:27:27.947Z,3.60
2019-05-25T18:29:57.547Z,3.70
2019-05-25T18:32:25.129Z,4.10
2019-05-25T18:34:54.941Z,3.70
2019-05-25T18:37:22.203Z,4.15
2019-05-25T18:39:49.001Z,3.72
2019-05-25T18:42:15.835Z,3.52
2019-05-25T18:44:42.712Z,4.53
2019-05-25T18:47:09.635Z,4.22
2019-05-25T18:49:36.776Z,5.15
2019-05-25T18:52:04.196Z,4.40
2019-05-25T18:54:30.947Z,4.47
2019-05-25T18:56:58.108Z,5.10
2019-05-25T18:59:25.599Z,5.65
2019-05-25T19:01:52.553Z,6.00
2019-05-25T19:04:19.819Z,6.70
2019-05-25T19:06:46.641Z,6.90
2019-05-25T19:09:13.564Z,5.22
2019-05-25T19:11:40.556Z,5.37
2019-05-25T19:14:07.732Z,6.20
2019-05-25T19:16:34.858Z,5.80
2019-05-25T19:19:01.711Z,5.60
2019-05-25T19:21:28.642Z,4.65
2019-05-25T19:23:55.595Z,5.53
2019-05-25T19:26:22.497Z,5.22
2019-05-25T19:28:49.443Z,5.22
2019-05-25T19:31:16.394Z,6.30
2019-05-25T19:33:43.253Z,7.83
2019-05-25T19:36:10.364Z,7.28
2019-05-25T19:38:37.257Z,6.85
2019-05-25T19:41:04.380Z,5.83
2019-05-25T19:43:31.438Z,7.33
2019-05-25T19:45:58.220Z,5.25
2019-05-25T19:48:25.174Z,10.90
2019-05-25T19:50:51.944Z,7.20
2019-05-25T19:53:18.749Z,6.12
2019-05-25T19:55:45.662Z,9.68
2019-05-25T19:58:12.797Z,7.60
2019-05-25T20:00:39.994Z,5.55
2019-05-25T20:03:06.890Z,8.48
2019-05-25T20:05:33.768Z,7.05
2019-05-25T20:08:00.609Z,5.92
2019-05-25T20:10:28.104Z,6.35
2019-05-25T20:12:55.092Z,7.00
2019-05-25T20:15:23.356Z,5.87
2019-05-25T20:17:50.213Z,8.65
2019-05-25T20:20:18.339Z,8.83
2019-05-25T20:22:45.254Z,6.00
2019-05-25T20:25:12.744Z,7.15
2019-05-25T20:27:39.708Z,5.85
2019-05-25T20:30:08.504Z,5.58
2019-05-25T20:32:35.525Z,6.92
2019-05-25T20:35:05.596Z,8.25
2019-05-25T20:37:32.590Z,6.08
2019-05-25T20:39:59.406Z,6.28
2019-05-25T20:42:26.406Z,6.30
2019-05-25T20:44:53.653Z,7.75
2019-05-25T20:47:20.537Z,8.58
2019-05-25T20:49:47.548Z,8.80
2019-05-25T20:52:15.382Z,9.60
2019-05-25T20:54:42.572Z,7.37
2019-05-25T20:57:09.794Z,8.18
2019-05-25T20:59:36.776Z,7.62
2019-05-25T21:02:04.110Z,7.55
2019-05-25T21:04:30.967Z,11.22
2019-05-25T21:06:58.071Z,9.33
2019-05-25T21:09:25.268Z,8.68
2019-05-25T21:11:55.598Z,8.70
2019-05-25T21:14:20.878Z,9.70
2019-05-25T21:16:47.701Z,10.28
2019-05-25T21:19:14.640Z,9.90
2019-05-25T21:21:41.736Z,9.38
2019-05-25T21:24:08.770Z,11.78
2019-05-25T21:26:35.973Z,9.18
2019-05-25T21:29:03.314Z,9.30
2019-05-25T21:31:30.084Z,8.68
2019-05-25T21:33:57.140Z,12.80
2019-05-25T21:36:25.996Z,8.53
2019-05-25T21:38:54.449Z,9.58
2019-05-25T21:41:23.468Z,7.72
2019-05-25T21:43:50.326Z,7.25
2019-05-25T21:46:17.207Z,7.53
2019-05-25T21:48:44.365Z,10.30
2019-05-25T21:51:11.828Z,8.90
2019-05-25T21:53:38.588Z,8.95
2019-05-25T21:56:05.402Z,12.65
2019-05-25T21:58:32.149Z,9.95
2019-05-25T22:00:59.269Z,8.43
2019-05-25T22:03:26.051Z,8.98
2019-05-25T22:05:53.108Z,8.80
2019-05-25T22:08:20.143Z,7.20
2019-05-25T22:10:47.194Z,8.80
2019-05-25T22:13:26.876Z,8.55
2019-05-25T22:15:42.989Z,9.33
2019-05-25T22:18:09.918Z,11.80
2019-05-25T22:20:37.825Z,8.48
2019-05-25T22:23:04.696Z,12.33
2019-05-25T22:25:31.594Z,10.60
2019-05-25T22:27:58.542Z,9.88
2019-05-25T22:30:26.207Z,10.15
2019-05-25T22:32:53.041Z,10.45
2019-05-25T22:35:19.851Z,11.88
2019-05-25T22:37:46.770Z,8.50
2019-05-25T22:40:14.033Z,9.20
2019-05-25T22:42:40.973Z,10.00
2019-05-25T22:45:10.098Z,10.65
2019-05-25T22:47:37.218Z,9.20
2019-05-25T22:50:05.437Z,10.15
2019-05-25T22:52:32.219Z,11.15
2019-05-25T22:54:59.101Z,13.78
2019-05-25T22:57:25.977Z,10.58
2019-05-25T22:59:55.779Z,9.15
2019-05-25T23:02:22.595Z,10.80
2019-05-25T23:04:49.488Z,14.28
2019-05-25T23:07:16.420Z,9.60
2019-05-25T23:09:43.339Z,9.68
2019-05-25T23:12:10.373Z,9.78
2019-05-25T23:14:37.293Z,9.18
2019-05-25T23:17:04.187Z,9.25
2019-05-25T23:19:30.977Z,8.75
2019-05-25T23:21:58.139Z,11.60
2019-05-25T23:24:24.991Z,8.55
2019-05-25T23:26:51.887Z,9.73
2019-05-25T23:29:18.758Z,9.83
2019-05-25T23:31:45.527Z,9.23
2019-05-25T23:34:12.457Z,11.65
2019-05-25T23:36:39.313Z,9.68
2019-05-25T23:39:06.185Z,12.93
2019-05-25T23:41:33.124Z,9.70
2019-05-25T23:44:02.727Z,8.60
2019-05-25T23:46:29.571Z,8.18
2019-05-25T23:48:56.451Z,9.23
2019-05-25T23:51:23.349Z,9.83
2019-05-25T23:53:50.298Z,11.68
2019-05-25T23:56:17.265Z,10.18
2019-05-25T23:58:44.150Z,12.20
